createdAt,value
2019-03-12T00:00:57.145Z,33.10
2019-03-12T00:03:25.557Z,33.60
2019-03-12T00:05:53.979Z,40.10
2019-03-12T00:08:22.404Z,30.67
2019-03-12T00:10:50.846Z,32.07
2019-03-12T00:13:19.262Z,36.67
2019-03-12T00:15:47.681Z,32.67
2019-03-12T00:18:16.348Z,29.83
2019-03-12T00:20:44.781Z,40.80
2019-03-12T00:23:13.244Z,42.10
2019-03-12T00:25:41.681Z,40.30
2019-03-12T00:28:10.085Z,29.57
2019-03-12T00:30:38.513Z,38.73
2019-03-12T00:33:06.989Z,41.67
2019-03-12T00:35:35.425Z,27.07
2019-03-12T00:38:03.837Z,33.03
2019-03-12T00:40:32.278Z,37.97
2019-03-12T00:43:00.693Z,38.60
2019-03-12T00:45:29.130Z,47.90
2019-03-12T00:47:57.541Z,33.57
2019-03-12T00:50:25.969Z,39.33
2019-03-12T00:52:54.377Z,45.87
2019-03-12T00:55:22.805Z,49.23
2019-03-12T00:57:51.208Z,48.47
2019-03-12T01:00:20.284Z,46.30
2019-03-12T01:02:48.734Z,56.30
2019-03-12T01:05:17.245Z,51.30
2019-03-12T01:07:45.682Z,57.43
2019-03-12T01:10:14.949Z,59.23
2019-03-12T01:12:43.358Z,63.90
2019-03-12T01:15:13.433Z,61.77
2019-03-12T01:17:41.836Z,55.70
2019-03-12T01:20:16.318Z,75.70
2019-03-12T01:22:44.820Z,71.50
2019-03-12T01:25:13.897Z,71.87
2019-03-12T01:27:42.381Z,67.20
2019-03-12T01:30:16.468Z,69.23
2019-03-12T01:32:45.026Z,66.37
2019-03-12T01:35:14.790Z,59.23
2019-03-12T01:37:43.214Z,56.93
2019-03-12T01:40:14.047Z,59.07
2019-03-12T01:42:42.550Z,82.03
2019-03-12T01:45:13.465Z,64.10
2019-03-12T01:47:43.140Z,57.33
2019-03-12T01:50:13.511Z,57.70
2019-03-12T01:52:41.909Z,61.87
2019-03-12T01:55:14.493Z,67.53
2019-03-12T01:57:42.902Z,70.53
2019-03-12T02:00:14.803Z,71.57
2019-03-12T02:02:43.205Z,72.30
2019-03-12T02:05:11.868Z,64.93
2019-03-12T02:07:41.354Z,73.97
2019-03-12T02:10:14.145Z,73.47
2019-03-12T02:12:43.926Z,80.03
2019-03-12T02:15:16.255Z,78.83
2019-03-12T02:17:44.655Z,81.37
2019-03-12T02:20:15.349Z,83.40
2019-03-12T02:22:49.307Z,88.03
2019-03-12T02:25:18.650Z,86.03
2019-03-12T02:27:48.066Z,82.20
2019-03-12T02:30:21.097Z,64.43
2019-03-12T02:32:49.507Z,80.67
2019-03-12T02:35:18.025Z,78.17
2019-03-12T02:37:46.514Z,81.00
2019-03-12T02:40:16.002Z,86.27
2019-03-12T02:42:44.597Z,81.20
2019-03-12T02:45:15.615Z,79.37
2019-03-12T02:47:44.082Z,85.80
2019-03-12T02:50:13.990Z,78.40
2019-03-12T02:52:43.081Z,78.80
2019-03-12T02:55:12.073Z,78.85
2019-03-12T02:57:42.422Z,65.67
2019-03-12T03:00:14.191Z,88.70
2019-03-12T03:02:43.024Z,88.67
2019-03-12T03:05:11.556Z,78.53
2019-03-12T03:07:50.530Z,55.00
2019-03-12T03:10:19.005Z,73.20
2019-03-12T03:12:47.825Z,64.30
2019-03-12T03:15:21.896Z,56.17
2019-03-12T03:17:50.415Z,65.63
2019-03-12T03:20:19.068Z,62.83
2019-03-12T03:22:47.502Z,63.87
2019-03-12T03:25:20.565Z,54.90
2019-03-12T03:27:48.998Z,56.40
2019-03-12T03:30:19.717Z,49.80
2019-03-12T03:32:48.535Z,53.33
2019-03-12T03:35:17.212Z,51.70
2019-03-12T03:37:45.779Z,55.73
2019-03-12T03:40:17.050Z,49.27
2019-03-12T03:42:45.598Z,48.33
2019-03-12T03:45:14.373Z,50.85
2019-03-12T03:47:43.169Z,43.03
2019-03-12T03:50:16.988Z,53.43
2019-03-12T03:53:26.271Z,45.03
2019-03-12T03:55:54.741Z,42.10
2019-03-12T03:58:23.246Z,47.37
2019-03-12T04:00:51.681Z,43.00
2019-03-12T04:03:20.110Z,40.70
2019-03-12T04:05:48.514Z,56.30
2019-03-12T04:08:17.834Z,49.97
2019-03-12T04:10:46.257Z,43.27
2019-03-12T04:13:14.697Z,58.70
2019-03-12T04:15:44.014Z,51.30
2019-03-12T04:18:12.430Z,58.50
2019-03-12T04:20:40.862Z,53.20
2019-03-12T04:23:09.304Z,44.03
2019-03-12T04:25:37.760Z,54.05
2019-03-12T04:28:06.198Z,47.47
2019-03-12T04:30:34.629Z,57.03
2019-03-12T04:33:03.137Z,61.20
2019-03-12T04:35:33.201Z,56.30
2019-03-12T04:38:01.645Z,53.77
2019-03-12T04:40:30.056Z,63.07
2019-03-12T04:42:58.472Z,60.67
2019-03-12T04:45:26.893Z,54.57
2019-03-12T04:47:55.312Z,54.30
2019-03-12T04:50:23.757Z,52.07
2019-03-12T04:52:52.293Z,52.00
2019-03-12T04:55:20.713Z,58.03
2019-03-12T04:57:49.154Z,61.77
2019-03-12T05:00:20.937Z,65.23
2019-03-12T05:02:49.377Z,55.83
2019-03-12T05:05:17.783Z,68.83
2019-03-12T05:07:46.200Z,55.83
2019-03-12T05:10:18.352Z,60.97
2019-03-12T05:12:46.783Z,54.80
2019-03-12T05:15:16.536Z,57.00
2019-03-12T05:17:45.501Z,70.03
2019-03-12T05:20:14.973Z,62.03
2019-03-12T05:22:43.464Z,63.67
2019-03-12T05:25:14.481Z,72.97
2019-03-12T05:27:43.121Z,64.00
2019-03-12T05:30:18.335Z,61.40
2019-03-12T05:32:46.895Z,65.93
2019-03-12T05:35:15.383Z,65.83
2019-03-12T05:37:43.944Z,58.80
2019-03-12T05:40:14.213Z,66.67
2019-03-12T05:42:42.636Z,54.50
2019-03-12T05:45:12.881Z,59.43
2019-03-12T05:47:41.309Z,49.73
2019-03-12T05:50:14.619Z,50.47
2019-03-12T05:52:43.049Z,55.37
2019-03-12T05:55:13.044Z,40.73
2019-03-12T05:57:41.453Z,50.20
2019-03-12T06:00:17.514Z,43.57
2019-03-12T06:02:45.917Z,50.50
2019-03-12T06:05:14.504Z,45.40
2019-03-12T06:07:42.925Z,49.73
2019-03-12T06:10:13.318Z,47.30
2019-03-12T06:12:41.753Z,46.47
2019-03-12T06:15:11.802Z,49.80
2019-03-12T06:17:40.229Z,53.60
2019-03-12T06:20:11.337Z,55.23
2019-03-12T06:22:39.738Z,61.57
2019-03-12T06:25:08.309Z,49.87
2019-03-12T06:27:36.709Z,55.17
2019-03-12T06:30:18.112Z,58.57
2019-03-12T06:32:54.190Z,57.80
2019-03-12T06:35:24.268Z,57.97
2019-03-12T06:37:59.738Z,58.13
2019-03-12T06:40:29.803Z,55.53
2019-03-12T06:43:02.583Z,51.40
2019-03-12T06:45:35.289Z,45.60
2019-03-12T06:48:10.236Z,49.00
2019-03-12T06:50:43.269Z,56.03
2019-03-12T06:53:28.496Z,52.90
2019-03-12T06:55:58.542Z,50.07
2019-03-12T06:58:34.078Z,48.43
2019-03-12T07:01:08.178Z,56.25
2019-03-12T07:03:41.194Z,42.83
2019-03-12T07:06:23.225Z,57.30
2019-03-12T07:08:53.294Z,49.43
2019-03-12T07:11:40.380Z,58.50
2019-03-12T07:14:22.794Z,62.27
2019-03-12T07:16:55.813Z,50.80
2019-03-12T07:19:44.044Z,50.20
2019-03-12T07:22:19.801Z,45.47
2019-03-12T07:24:55.533Z,53.00
2019-03-12T07:27:41.539Z,41.70
2019-03-12T07:30:21.934Z,37.43
2019-03-12T07:33:06.774Z,34.83
2019-03-12T07:35:45.670Z,33.13
2019-03-12T07:38:15.708Z,28.80
2019-03-12T07:41:01.850Z,28.03
2019-03-12T07:43:46.995Z,33.80
2019-03-12T07:46:17.086Z,31.27
2019-03-12T07:49:03.169Z,26.13
2019-03-12T07:51:38.773Z,30.50
2019-03-12T07:54:17.460Z,27.58
2019-03-12T07:57:06.757Z,23.27
2019-03-12T07:59:48.907Z,26.87
2019-03-12T08:02:27.860Z,23.43
2019-03-12T08:04:58.005Z,22.70
2019-03-12T08:07:44.641Z,22.47
2019-03-12T08:10:17.428Z,21.20
2019-03-12T08:12:50.165Z,21.77
2019-03-12T08:15:28.971Z,19.80
2019-03-12T08:18:10.834Z,21.80
2019-03-12T08:20:56.969Z,25.77
2019-03-12T08:23:27.095Z,17.33
2019-03-12T08:26:00.209Z,20.53
2019-03-12T08:28:39.464Z,19.00
2019-03-12T08:31:12.347Z,19.50
2019-03-12T08:33:50.494Z,20.00
2019-03-12T08:36:14.178Z,17.23
2019-03-12T08:38:47.162Z,15.37
2019-03-12T08:41:17.233Z,20.23
2019-03-12T08:43:49.405Z,16.23
2019-03-12T08:46:22.337Z,16.80
2019-03-12T08:49:03.008Z,15.10
2019-03-12T08:51:36.001Z,18.67
2019-03-12T08:54:06.133Z,18.87
2019-03-12T08:56:36.219Z,18.03
2019-03-12T08:59:18.326Z,16.83
2019-03-12T09:02:04.121Z,21.23
2019-03-12T09:04:40.237Z,19.67
2019-03-12T09:07:26.397Z,17.00
2019-03-12T09:09:59.561Z,19.47
2019-03-12T09:12:34.169Z,19.83
2019-03-12T09:15:28.832Z,18.87
2019-03-12T09:17:58.877Z,16.13
2019-03-12T09:20:31.850Z,17.07
2019-03-12T09:23:04.632Z,18.13
2019-03-12T09:25:37.224Z,21.90
2019-03-12T09:28:07.380Z,18.07
2019-03-12T09:30:53.414Z,18.23
2019-03-12T09:33:26.316Z,21.77
2019-03-12T09:35:59.352Z,13.57
2019-03-12T09:38:29.444Z,20.50
2019-03-12T09:41:05.245Z,12.73
2019-03-12T09:43:41.282Z,23.70
2019-03-12T09:46:11.344Z,15.10
2019-03-12T09:48:46.926Z,15.60
2019-03-12T09:51:16.992Z,12.50
2019-03-12T09:54:03.269Z,17.43
2019-03-12T09:56:36.353Z,19.43
2019-03-12T09:59:21.608Z,18.93
2019-03-12T10:01:59.440Z,15.37
2019-03-12T10:04:35.132Z,14.27
2019-03-12T10:07:13.949Z,15.23
2019-03-12T10:09:55.798Z,12.83
2019-03-12T10:12:46.414Z,23.57
2019-03-12T10:15:22.313Z,17.20
2019-03-12T10:17:55.361Z,16.27
2019-03-12T10:20:40.529Z,15.90
2019-03-12T10:23:13.621Z,17.67
2019-03-12T10:25:59.566Z,18.10
2019-03-12T10:28:41.436Z,19.60
2019-03-12T10:31:14.393Z,18.42
2019-03-12T10:33:47.484Z,17.80
2019-03-12T10:36:33.506Z,18.77
2019-03-12T10:39:42.708Z,20.90
2019-03-12T10:42:21.718Z,20.03
2019-03-12T10:44:51.768Z,26.80
2019-03-12T10:47:21.832Z,21.33
2019-03-12T10:49:50.256Z,25.63
2019-03-12T10:52:18.689Z,26.00
2019-03-12T10:54:47.194Z,25.65
2019-03-12T10:57:15.630Z,24.35
2019-03-12T10:59:44.064Z,25.62
2019-03-12T11:02:12.468Z,23.80
2019-03-12T11:04:40.886Z,21.23
2019-03-12T11:07:16.596Z,21.50
2019-03-12T11:09:39.461Z,21.33
2019-03-12T11:12:07.944Z,20.60
2019-03-12T11:14:36.396Z,25.33
2019-03-12T11:17:04.881Z,19.73
2019-03-12T11:19:33.300Z,22.87
2019-03-12T11:22:01.729Z,21.10
2019-03-12T11:24:30.155Z,20.83
2019-03-12T11:26:58.566Z,19.70
2019-03-12T11:29:27.155Z,26.27
2019-03-12T11:31:55.560Z,23.10
2019-03-12T11:34:23.983Z,15.67
2019-03-12T11:36:52.454Z,25.17
2019-03-12T11:39:21.120Z,21.17
2019-03-12T11:41:49.954Z,17.90
2019-03-12T11:44:18.449Z,21.63
2019-03-12T11:46:46.979Z,20.10
2019-03-12T11:49:15.444Z,36.00
2019-03-12T11:51:44.127Z,28.87
2019-03-12T11:54:12.554Z,25.33
2019-03-12T11:56:41.320Z,25.20
2019-03-12T11:59:09.760Z,24.47
2019-03-12T12:01:38.261Z,33.50
2019-03-12T12:04:06.663Z,26.50
2019-03-12T12:06:35.102Z,31.37
2019-03-12T12:09:04.565Z,27.53
2019-03-12T12:11:32.993Z,24.57
2019-03-12T12:14:01.493Z,21.90
2019-03-12T12:16:30.044Z,25.07
2019-03-12T12:18:58.470Z,25.30
2019-03-12T12:21:26.981Z,21.20
2019-03-12T12:23:55.401Z,27.57
2019-03-12T12:26:23.832Z,27.60
2019-03-12T12:28:52.265Z,20.97
2019-03-12T12:31:20.664Z,23.23
2019-03-12T12:33:49.107Z,25.00
2019-03-12T12:36:17.512Z,19.43
2019-03-12T12:38:45.967Z,17.70
2019-03-12T12:41:17.431Z,16.50
2019-03-12T12:43:45.835Z,19.80
2019-03-12T12:46:14.250Z,20.60
2019-03-12T12:48:42.689Z,20.83
2019-03-12T12:51:11.085Z,18.83
2019-03-12T12:53:39.531Z,18.33
2019-03-12T12:56:08.047Z,15.37
2019-03-12T12:58:36.477Z,19.30
2019-03-12T13:01:05.074Z,19.67
2019-03-12T13:03:33.556Z,18.23
2019-03-12T13:06:02.016Z,13.70
2019-03-12T13:08:30.416Z,13.27
2019-03-12T13:10:59.072Z,21.07
2019-03-12T13:13:27.500Z,13.20
2019-03-12T13:15:55.903Z,15.97
2019-03-12T13:18:24.317Z,18.23
2019-03-12T13:20:52.823Z,21.23
2019-03-12T13:23:21.232Z,18.80
2019-03-12T13:25:49.665Z,17.63
2019-03-12T13:28:18.098Z,16.40
2019-03-12T13:30:46.590Z,15.57
2019-03-12T13:33:15.088Z,13.37
2019-03-12T13:35:43.513Z,13.93
2019-03-12T13:38:11.913Z,17.07
2019-03-12T13:40:40.398Z,12.63
2019-03-12T13:43:08.912Z,14.40
2019-03-12T13:45:37.388Z,10.53
2019-03-12T13:48:05.846Z,17.87
2019-03-12T13:50:34.676Z,13.63
2019-03-12T13:53:03.325Z,15.20
2019-03-12T13:55:31.985Z,20.63
2019-03-12T13:58:00.542Z,14.87
2019-03-12T14:00:29.281Z,16.67
2019-03-12T14:02:57.689Z,14.87
2019-03-12T14:05:26.188Z,14.20
2019-03-12T14:07:54.706Z,13.43
2019-03-12T14:10:24.262Z,12.93
2019-03-12T14:12:53.362Z,15.40
2019-03-12T14:15:29.872Z,16.77
2019-03-12T14:17:58.361Z,18.07
2019-03-12T14:20:41.414Z,13.33
2019-03-12T14:23:14.194Z,12.60
2019-03-12T14:25:42.673Z,13.73
2019-03-12T14:28:11.166Z,13.13
2019-03-12T14:30:39.805Z,14.23
2019-03-12T14:33:08.308Z,12.20
2019-03-12T14:35:36.723Z,13.40
2019-03-12T14:38:07.812Z,12.23
2019-03-12T14:40:39.805Z,11.27
2019-03-12T14:43:09.852Z,11.65
2019-03-12T14:45:47.753Z,12.57
2019-03-12T14:48:40.402Z,12.03
2019-03-12T14:51:11.920Z,12.20
2019-03-12T14:53:41.910Z,14.90
2019-03-12T14:56:10.340Z,11.87
2019-03-12T14:58:38.780Z,14.63
2019-03-12T15:01:07.261Z,14.20
2019-03-12T15:03:35.679Z,16.57
2019-03-12T15:06:04.150Z,11.20
2019-03-12T15:08:32.568Z,13.53
2019-03-12T15:11:01.003Z,11.27
2019-03-12T15:13:29.460Z,11.13
2019-03-12T15:15:57.912Z,15.73
2019-03-12T15:18:26.349Z,12.33
2019-03-12T15:20:54.750Z,13.07
2019-03-12T15:23:23.172Z,17.00
2019-03-12T15:25:51.610Z,10.50
2019-03-12T15:28:20.033Z,17.47
2019-03-12T15:30:48.545Z,9.68
2019-03-12T15:33:16.977Z,9.93
2019-03-12T15:35:45.430Z,10.50
2019-03-12T15:38:13.871Z,19.60
2019-03-12T15:40:42.265Z,9.33
2019-03-12T15:43:10.728Z,11.03
2019-03-12T15:45:39.156Z,11.53
2019-03-12T15:48:07.544Z,13.50
2019-03-12T15:50:36.040Z,12.93
2019-03-12T15:53:04.454Z,12.33
2019-03-12T15:55:32.880Z,13.10
2019-03-12T15:58:01.301Z,19.83
2019-03-12T16:00:29.737Z,16.70
2019-03-12T16:02:58.142Z,16.77
2019-03-12T16:05:26.849Z,7.63
2019-03-12T16:07:55.245Z,13.03
2019-03-12T16:10:23.691Z,9.63
2019-03-12T16:12:52.212Z,10.97
2019-03-12T16:15:20.669Z,7.70
2019-03-12T16:17:49.086Z,7.85
2019-03-12T16:20:19.048Z,11.13
2019-03-12T16:22:47.625Z,12.33
2019-03-12T16:25:16.033Z,16.70
2019-03-12T16:27:44.459Z,13.83
2019-03-12T16:30:22.549Z,17.30
2019-03-12T16:32:51.018Z,13.90
2019-03-12T16:35:19.485Z,14.03
2019-03-12T16:37:47.924Z,9.00
2019-03-12T16:40:18.457Z,11.80
2019-03-12T16:42:47.208Z,12.27
2019-03-12T16:45:19.880Z,9.90
2019-03-12T16:47:48.415Z,9.87
2019-03-12T16:50:17.662Z,9.53
2019-03-12T16:52:46.078Z,8.53
2019-03-12T16:55:18.252Z,10.93
2019-03-12T16:57:46.701Z,11.83
2019-03-12T17:00:22.260Z,10.23
2019-03-12T17:02:50.925Z,12.90
2019-03-12T17:05:19.406Z,10.17
2019-03-12T17:07:48.221Z,12.00
2019-03-12T17:10:18.861Z,11.90
2019-03-12T17:12:47.424Z,11.37
2019-03-12T17:15:17.929Z,10.17
2019-03-12T17:17:46.402Z,11.37
2019-03-12T17:20:16.289Z,9.60
2019-03-12T17:22:44.708Z,10.43
2019-03-12T17:25:13.784Z,11.90
2019-03-12T17:27:42.269Z,13.37
2019-03-12T17:30:20.969Z,14.20
2019-03-12T17:32:49.376Z,9.20
2019-03-12T17:35:37.136Z,10.13
2019-03-12T17:38:05.632Z,12.70
2019-03-12T17:40:34.064Z,9.93
2019-03-12T17:43:02.470Z,12.83
2019-03-12T17:45:30.963Z,12.68
2019-03-12T17:47:59.526Z,15.37
2019-03-12T17:50:28.281Z,11.17
2019-03-12T17:52:56.702Z,13.20
2019-03-12T17:55:25.125Z,13.70
2019-03-12T17:57:53.543Z,10.93
2019-03-12T18:00:24.474Z,12.35
2019-03-12T18:02:52.928Z,10.13
2019-03-12T18:05:21.491Z,10.03
2019-03-12T18:07:50.142Z,14.50
2019-03-12T18:10:19.021Z,12.73
2019-03-12T18:12:47.413Z,12.07
2019-03-12T18:15:20.111Z,12.53
2019-03-12T18:17:49.082Z,11.67
2019-03-12T18:20:19.614Z,12.60
2019-03-12T18:22:48.117Z,12.23
2019-03-12T18:25:27.880Z,12.67
2019-03-12T18:27:56.287Z,14.43
2019-03-12T18:30:24.716Z,16.83
2019-03-12T18:32:53.112Z,9.47
2019-03-12T18:35:21.572Z,9.77
2019-03-12T18:37:49.980Z,10.87
2019-03-12T18:40:20.512Z,15.03
2019-03-12T18:42:48.997Z,12.23
2019-03-12T18:45:22.592Z,12.80
2019-03-12T18:47:51.045Z,14.73
2019-03-12T18:50:19.836Z,18.30
2019-03-12T18:52:48.313Z,9.03
2019-03-12T18:55:31.494Z,15.43
2019-03-12T18:57:59.921Z,13.97
2019-03-12T19:00:28.504Z,12.47
2019-03-12T19:02:56.980Z,7.43
2019-03-12T19:05:27.990Z,10.50
2019-03-12T19:07:55.612Z,11.60
2019-03-12T19:10:24.293Z,11.90
2019-03-12T19:12:52.712Z,9.57
2019-03-12T19:15:21.137Z,10.77
2019-03-12T19:17:49.540Z,14.57
2019-03-12T19:20:18.613Z,8.50
2019-03-12T19:22:47.033Z,9.33
2019-03-12T19:25:23.083Z,11.00
2019-03-12T19:27:59.976Z,11.77
2019-03-12T19:30:21.742Z,8.43
2019-03-12T19:32:54.549Z,13.03
2019-03-12T19:35:28.193Z,15.23
2019-03-12T19:37:57.911Z,8.83
2019-03-12T19:40:34.876Z,14.58
2019-03-12T19:43:03.379Z,15.10
2019-03-12T19:45:31.932Z,12.43
2019-03-12T19:48:00.410Z,9.17
2019-03-12T19:50:28.997Z,8.93
2019-03-12T19:52:57.472Z,13.13
2019-03-12T19:55:34.846Z,9.97
2019-03-12T19:58:03.345Z,10.17
2019-03-12T20:00:32.210Z,8.90
2019-03-12T20:03:10.343Z,10.80
2019-03-12T20:05:30.989Z,9.40
2019-03-12T20:07:59.515Z,9.77
2019-03-12T20:10:42.938Z,11.07
2019-03-12T20:13:23.512Z,9.57
2019-03-12T20:16:06.807Z,9.30
2019-03-12T20:18:57.883Z,13.03
2019-03-12T20:21:59.413Z,8.90
2019-03-12T20:25:03.921Z,7.43
2019-03-12T20:27:51.878Z,8.90
2019-03-12T20:30:26.174Z,11.47
2019-03-12T20:33:18.392Z,8.83
2019-03-12T20:36:04.325Z,10.37
2019-03-12T20:38:51.893Z,6.80
2019-03-12T20:41:41.315Z,10.40
2019-03-12T20:44:30.685Z,8.37
2019-03-12T20:47:08.409Z,9.73
2019-03-12T20:50:05.207Z,8.73
2019-03-12T20:52:52.904Z,8.60
2019-03-12T20:55:52.968Z,7.93
2019-03-12T20:58:43.880Z,13.93
2019-03-12T21:01:16.064Z,9.13
2019-03-12T21:03:56.035Z,5.87
2019-03-12T21:06:43.973Z,7.13
2019-03-12T21:09:33.392Z,8.43
2019-03-12T21:12:24.233Z,7.87
2019-03-12T21:15:12.048Z,5.53
2019-03-12T21:17:57.664Z,10.80
2019-03-12T21:20:54.722Z,8.10
2019-03-12T21:23:32.111Z,7.43
2019-03-12T21:26:18.351Z,9.50
2019-03-12T21:29:09.352Z,9.13
2019-03-12T21:31:37.771Z,10.00
2019-03-12T21:34:06.255Z,8.20
2019-03-12T21:36:34.702Z,5.57
2019-03-12T21:39:04.526Z,5.80
2019-03-12T21:41:32.935Z,7.47
2019-03-12T21:44:01.370Z,6.50
2019-03-12T21:46:29.769Z,10.30
2019-03-12T21:48:58.503Z,14.30
2019-03-12T21:51:26.991Z,6.47
2019-03-12T21:53:55.433Z,6.07
2019-03-12T21:56:23.878Z,10.43
2019-03-12T21:58:52.273Z,8.87
2019-03-12T22:01:20.728Z,9.10
2019-03-12T22:03:49.162Z,5.23
2019-03-12T22:06:17.577Z,11.37
2019-03-12T22:08:46.052Z,10.67
2019-03-12T22:11:14.482Z,7.67
2019-03-12T22:13:43.216Z,6.33
2019-03-12T22:16:11.653Z,8.10
2019-03-12T22:18:40.099Z,5.30
2019-03-12T22:21:08.518Z,6.58
2019-03-12T22:23:38.600Z,7.43
2019-03-12T22:26:07.009Z,10.27
2019-03-12T22:28:35.444Z,6.40
2019-03-12T22:31:03.856Z,10.10
2019-03-12T22:33:32.272Z,7.50
2019-03-12T22:36:00.681Z,6.70
2019-03-12T22:38:29.284Z,7.57
2019-03-12T22:40:57.716Z,4.67
2019-03-12T22:43:26.181Z,6.70
2019-03-12T22:45:54.589Z,5.90
2019-03-12T22:48:22.989Z,8.47
2019-03-12T22:50:51.416Z,9.00
2019-03-12T22:53:19.808Z,8.77
2019-03-12T22:55:48.472Z,6.60
2019-03-12T22:58:16.916Z,4.50
2019-03-12T23:00:45.601Z,6.50
2019-03-12T23:03:14.028Z,11.07
2019-03-12T23:05:42.509Z,7.77
2019-03-12T23:08:11.265Z,7.30
2019-03-12T23:10:39.849Z,10.10
2019-03-12T23:13:08.337Z,8.63
2019-03-12T23:15:37.050Z,7.27
2019-03-12T23:18:05.540Z,7.37
2019-03-12T23:20:33.982Z,6.63
2019-03-12T23:23:02.377Z,5.43
2019-03-12T23:25:30.849Z,7.77
2019-03-12T23:27:59.349Z,9.00
2019-03-12T23:30:28.910Z,8.43
2019-03-12T23:32:57.700Z,5.30
2019-03-12T23:35:26.167Z,6.17
2019-03-12T23:37:54.582Z,7.30
2019-03-12T23:40:23.025Z,6.27
2019-03-12T23:42:51.548Z,7.20
2019-03-12T23:45:19.982Z,4.90
2019-03-12T23:47:50.320Z,7.17
2019-03-12T23:50:19.341Z,6.83
2019-03-12T23:52:47.828Z,6.27
2019-03-12T23:55:17.695Z,5.83
2019-03-12T23:57:46.184Z,4.40
